createdAt,value
2023-08-17T00:32:09.726Z,99.90
2023-08-17T05:09:36.564Z,99.90
2023-08-17T05:12:03.620Z,99.90
2023-08-17T05:14:31.378Z,99.90
2023-08-17T05:16:58.883Z,99.90
2023-08-17T05:19:25.761Z,99.90
2023-08-17T05:21:52.792Z,99.90
2023-08-17T05:24:21.703Z,99.90
2023-08-17T05:26:48.652Z,99.90
2023-08-17T05:29:15.523Z,99.90
2023-08-17T05:31:42.460Z,99.90
2023-08-17T05:34:09.368Z,99.90
2023-08-17T05:36:36.538Z,99.90
2023-08-17T05:39:03.734Z,99.90
2023-08-17T05:41:30.544Z,99.90
2023-08-17T05:43:57.560Z,99.90
2023-08-17T05:46:24.570Z,99.90
2023-08-17T05:48:51.847Z,99.90
2023-08-17T05:51:18.806Z,99.90
2023-08-17T05:53:46.116Z,99.90
2023-08-17T05:56:13.060Z,99.90
2023-08-17T05:58:41.401Z,99.90
2023-08-17T06:01:09.148Z,99.90
2023-08-17T06:03:37.214Z,99.90
2023-08-17T06:06:13.814Z,99.90
2023-08-17T06:13:41.378Z,99.90
2023-08-17T06:16:08.486Z,99.90
2023-08-17T06:18:35.889Z,99.90
2023-08-17T06:21:02.814Z,99.90
2023-08-17T06:23:30.000Z,99.90
2023-08-17T06:47:57.996Z,99.90
2023-08-17T06:50:24.974Z,99.90
2023-08-17T06:52:51.909Z,99.90
2023-08-17T07:21:04.566Z,99.90
2023-08-17T07:23:31.511Z,99.90
2023-08-17T07:25:58.395Z,99.90
2023-08-17T07:28:25.272Z,99.90
2023-08-17T07:30:52.200Z,99.90
2023-08-17T07:33:19.079Z,99.90
2023-08-17T07:35:45.987Z,99.90
2023-08-17T07:38:12.888Z,99.90
2023-08-17T07:40:39.809Z,99.90
2023-08-17T07:43:06.787Z,99.90
2023-08-17T07:45:33.678Z,99.90
2023-08-17T07:48:00.738Z,99.90
2023-08-17T07:50:27.685Z,99.90
2023-08-17T07:52:54.812Z,99.90
2023-08-17T07:55:21.979Z,99.90
2023-08-17T07:57:48.872Z,99.90
2023-08-17T08:00:16.314Z,99.90
2023-08-17T08:02:43.313Z,99.90
2023-08-17T08:05:10.382Z,99.90
2023-08-17T08:07:37.304Z,99.90
2023-08-17T08:10:04.368Z,99.90
2023-08-17T08:12:31.257Z,99.90
2023-08-17T08:14:58.153Z,99.90
2023-08-17T08:17:25.386Z,99.90
2023-08-17T08:19:52.622Z,99.90
2023-08-17T08:22:19.608Z,99.90
2023-08-17T08:24:46.564Z,99.90
2023-08-17T08:27:13.484Z,99.90
2023-08-17T08:29:41.018Z,99.90
2023-08-17T08:32:07.899Z,99.90
2023-08-17T08:34:34.769Z,99.90
2023-08-17T08:37:01.894Z,99.90
2023-08-17T08:39:28.879Z,99.90
2023-08-17T08:41:55.871Z,99.90
2023-08-17T08:44:22.887Z,99.90
2023-08-17T08:46:50.062Z,99.90
2023-08-17T08:49:20.595Z,99.90
2023-08-17T08:51:49.878Z,99.90
2023-08-17T08:54:24.424Z,99.90
2023-08-17T08:56:55.977Z,99.90
2023-08-17T08:59:22.905Z,99.90
2023-08-17T09:01:51.783Z,99.90
2023-08-17T09:04:18.945Z,99.90
2023-08-17T09:06:45.839Z,99.90
2023-08-17T09:09:12.856Z,99.90
2023-08-17T09:11:44.918Z,99.90
2023-08-17T09:14:12.106Z,99.90
2023-08-17T09:16:39.066Z,99.90
2023-08-17T09:19:06.556Z,99.90
2023-08-17T09:21:34.220Z,99.90
2023-08-17T09:24:01.148Z,99.90
2023-08-17T09:26:34.301Z,99.90
2023-08-17T09:29:01.795Z,99.90
2023-08-17T09:31:29.222Z,99.90
2023-08-17T09:33:56.096Z,99.90
2023-08-17T09:36:23.608Z,99.90
2023-08-17T09:38:51.957Z,99.90
2023-08-17T09:41:19.430Z,99.90
2023-08-17T09:43:47.368Z,99.90
2023-08-17T09:46:14.408Z,99.90
2023-08-17T09:48:41.325Z,99.90
2023-08-17T09:51:08.250Z,99.90
2023-08-17T09:53:38.544Z,99.90
2023-08-17T09:56:08.773Z,99.90
2023-08-17T09:58:35.757Z,99.90
2023-08-17T10:01:04.822Z,99.90
2023-08-17T10:03:33.121Z,99.90
2023-08-17T10:06:07.331Z,99.90
2023-08-17T10:11:07.218Z,99.90
2023-08-17T10:13:49.386Z,99.90
2023-08-17T10:16:31.110Z,99.90
2023-08-17T10:19:13.716Z,99.90
2023-08-17T10:22:01.150Z,99.90
2023-08-17T10:24:27.964Z,99.90
2023-08-17T10:26:55.209Z,99.90
2023-08-17T10:29:23.989Z,99.90
2023-08-17T10:31:50.796Z,99.90
2023-08-17T10:34:17.698Z,99.90
2023-08-17T10:36:44.678Z,99.90
2023-08-17T10:39:29.303Z,99.90
2023-08-17T10:41:57.513Z,99.90
2023-08-17T10:44:40.462Z,99.90
2023-08-17T10:47:27.232Z,99.90
2023-08-17T10:50:06.294Z,99.90
2023-08-17T10:52:37.247Z,99.90
2023-08-17T10:55:09.947Z,99.90
2023-08-17T10:57:37.878Z,99.90
2023-08-17T11:03:21.129Z,99.90
2023-08-17T11:05:54.919Z,99.90
2023-08-17T11:08:33.451Z,99.90
2023-08-17T11:11:00.368Z,99.90
2023-08-17T11:13:34.227Z,99.90
2023-08-17T11:16:04.617Z,99.60
2023-08-17T11:18:32.851Z,97.20
2023-08-17T11:20:59.778Z,95.20
2023-08-17T11:23:29.433Z,98.20
2023-08-17T11:25:56.405Z,99.90
2023-08-17T11:28:26.503Z,98.60
2023-08-17T11:31:00.107Z,98.50
2023-08-17T11:33:30.727Z,95.90
2023-08-17T11:36:03.164Z,87.80
2023-08-17T11:38:37.877Z,93.00
2023-08-17T11:41:05.237Z,91.30
2023-08-17T11:43:33.394Z,90.10
2023-08-17T11:46:01.723Z,90.10
2023-08-17T11:48:28.764Z,91.00
2023-08-17T11:50:59.218Z,92.00
2023-08-17T11:53:26.181Z,92.40
2023-08-17T11:55:56.287Z,89.80
2023-08-17T11:58:46.819Z,89.20
2023-08-17T12:01:14.465Z,92.60
2023-08-17T12:03:44.476Z,89.60
2023-08-17T12:06:11.943Z,78.30
2023-08-17T12:08:38.761Z,77.00
2023-08-17T12:11:05.931Z,80.20
2023-08-17T12:13:35.899Z,82.70
2023-08-17T12:16:03.525Z,81.40
2023-08-17T12:18:33.122Z,80.10
2023-08-17T12:21:00.034Z,75.10
2023-08-17T12:23:27.093Z,74.10
2023-08-17T12:25:55.649Z,70.00
2023-08-17T12:28:24.256Z,75.30
2023-08-17T12:30:59.797Z,65.70
2023-08-17T12:33:26.836Z,65.40
2023-08-17T12:35:53.926Z,66.80
2023-08-17T12:38:20.793Z,63.30
2023-08-17T12:40:47.642Z,63.40
2023-08-17T12:43:16.041Z,63.90
2023-08-17T12:45:42.952Z,63.80
2023-08-17T12:48:09.874Z,63.90
2023-08-17T12:50:43.429Z,61.70
2023-08-17T12:53:10.626Z,59.70
2023-08-17T12:55:37.546Z,60.30
2023-08-17T12:58:04.614Z,60.20
2023-08-17T13:00:31.525Z,58.60
2023-08-17T13:02:58.408Z,56.60
2023-08-17T13:05:25.287Z,56.80
2023-08-17T13:07:52.223Z,54.60
2023-08-17T13:10:19.281Z,56.40
2023-08-17T13:12:48.252Z,54.10
2023-08-17T13:15:15.213Z,56.30
2023-08-17T13:17:42.973Z,58.40
2023-08-17T13:20:10.843Z,55.20
2023-08-17T13:22:37.693Z,56.30
2023-08-17T13:25:04.946Z,54.20
2023-08-17T13:27:31.880Z,55.00
2023-08-17T13:30:00.157Z,56.10
2023-08-17T13:32:27.889Z,59.40
2023-08-17T13:34:55.097Z,62.00
2023-08-17T13:37:22.866Z,61.90
2023-08-17T13:39:49.704Z,62.80
2023-08-17T13:42:16.602Z,64.40
2023-08-17T13:44:43.529Z,68.70
2023-08-17T13:47:10.342Z,74.10
2023-08-17T13:49:37.175Z,80.20
2023-08-17T13:52:04.610Z,81.30
2023-08-17T13:54:31.559Z,98.50
2023-08-17T13:56:58.450Z,99.90
2023-08-17T13:59:25.368Z,99.90
2023-08-17T14:01:52.329Z,99.90
2023-08-17T14:04:19.820Z,99.90
2023-08-17T14:06:46.801Z,99.90
2023-08-17T14:09:13.661Z,99.90
2023-08-17T14:11:40.929Z,99.90
2023-08-17T14:14:08.766Z,99.90
2023-08-17T14:16:37.614Z,99.90
2023-08-17T14:19:04.910Z,99.90
2023-08-17T14:21:31.850Z,99.90
2023-08-17T14:23:58.716Z,99.90
2023-08-17T14:26:25.620Z,99.90
2023-08-17T14:28:52.582Z,99.90
2023-08-17T14:31:19.696Z,99.90
2023-08-17T14:33:50.696Z,99.90
2023-08-17T14:36:20.797Z,99.90
2023-08-17T14:38:48.016Z,99.90
2023-08-17T14:41:15.268Z,99.90
2023-08-17T14:43:42.229Z,99.90
2023-08-17T14:46:14.850Z,99.90
2023-08-17T14:48:42.118Z,99.90
2023-08-17T14:51:09.246Z,99.90
2023-08-17T14:53:39.186Z,99.90
2023-08-17T14:56:06.592Z,99.90
2023-08-17T14:58:33.578Z,99.90
2023-08-17T15:01:00.656Z,99.90
2023-08-17T15:03:28.170Z,99.90
2023-08-17T15:05:55.254Z,99.90
2023-08-17T15:08:22.261Z,99.90
2023-08-17T15:10:49.350Z,99.90
2023-08-17T15:13:16.585Z,99.90
2023-08-17T15:15:44.430Z,99.90
2023-08-17T15:18:11.508Z,99.90
2023-08-17T15:20:38.513Z,99.90
2023-08-17T15:23:05.706Z,99.90
2023-08-17T15:25:32.846Z,99.90
2023-08-17T15:27:59.749Z,99.90
2023-08-17T15:30:26.750Z,99.90
2023-08-17T15:32:54.090Z,99.90
2023-08-17T15:35:21.078Z,99.90
2023-08-17T15:37:47.973Z,99.90
2023-08-17T15:40:14.977Z,99.90
2023-08-17T15:42:41.862Z,99.90
2023-08-17T15:45:09.203Z,99.90
2023-08-17T15:47:36.111Z,99.90
2023-08-17T15:50:03.087Z,99.90
2023-08-17T15:52:30.032Z,99.90
2023-08-17T15:54:56.995Z,99.90
2023-08-17T15:57:23.914Z,99.90
2023-08-17T15:59:51.596Z,99.90
2023-08-17T16:02:18.850Z,99.90
2023-08-17T16:04:45.798Z,99.90
2023-08-17T16:07:13.223Z,99.90
2023-08-17T16:09:40.314Z,99.90
2023-08-17T16:12:07.434Z,99.90
2023-08-17T16:14:34.712Z,99.90
2023-08-17T16:17:01.689Z,99.90
2023-08-17T16:19:28.587Z,99.90
2023-08-17T16:21:55.453Z,99.90
2023-08-17T16:26:52.151Z,99.90
2023-08-17T16:29:19.055Z,99.90
2023-08-17T16:31:45.957Z,99.90
2023-08-17T16:34:12.880Z,99.90
2023-08-17T16:36:39.760Z,99.90
2023-08-17T16:39:07.211Z,99.90
2023-08-17T16:41:34.092Z,99.90
2023-08-17T16:44:05.701Z,99.90
2023-08-17T16:46:32.973Z,99.90
2023-08-17T16:48:59.897Z,99.90
2023-08-17T16:51:26.802Z,99.90
2023-08-17T16:53:54.922Z,99.90
2023-08-17T16:56:21.837Z,99.90
2023-08-17T16:58:48.788Z,99.90
2023-08-17T17:01:15.742Z,99.90
2023-08-17T17:03:43.641Z,99.90
2023-08-17T17:06:11.779Z,99.90
2023-08-17T17:08:38.789Z,99.90
2023-08-17T17:11:05.778Z,99.90
2023-08-17T17:13:32.743Z,99.90
2023-08-17T17:15:59.753Z,99.90
2023-08-17T17:18:26.888Z,99.90
2023-08-17T17:20:53.776Z,99.90
2023-08-17T17:23:20.689Z,99.90
2023-08-17T17:25:47.831Z,99.90
2023-08-17T17:28:14.688Z,99.90
2023-08-17T17:30:41.745Z,99.90
2023-08-17T17:33:08.800Z,99.90
2023-08-17T17:35:35.834Z,99.90
2023-08-17T17:38:02.793Z,99.90
2023-08-17T17:40:29.755Z,99.90
2023-08-17T17:42:56.712Z,99.90
2023-08-17T17:45:24.887Z,99.90
2023-08-17T17:47:51.737Z,99.90
2023-08-17T17:50:18.689Z,99.90
2023-08-17T17:52:48.325Z,99.90
2023-08-17T17:55:15.630Z,99.90
2023-08-17T17:57:42.634Z,99.90
2023-08-17T18:00:11.457Z,99.90
2023-08-17T18:02:38.465Z,99.90
2023-08-17T18:05:05.888Z,99.90
2023-08-17T18:07:32.780Z,99.90
2023-08-17T18:10:01.466Z,99.90
2023-08-17T18:12:30.046Z,99.90
2023-08-17T18:14:57.953Z,99.90
2023-08-17T18:17:24.960Z,99.90
2023-08-17T18:19:51.985Z,99.90
2023-08-17T18:22:18.981Z,99.90
2023-08-17T18:24:45.838Z,99.90
2023-08-17T18:27:13.819Z,99.90
2023-08-17T18:29:40.689Z,99.90
2023-08-17T18:32:08.123Z,99.90
2023-08-17T18:34:35.101Z,99.90
2023-08-17T18:37:01.999Z,99.90
2023-08-17T18:39:28.928Z,99.90
2023-08-17T18:41:55.798Z,99.90
2023-08-17T18:44:23.678Z,99.90
2023-08-17T18:46:50.572Z,99.90
2023-08-17T18:49:19.820Z,99.90
2023-08-17T18:51:46.817Z,99.90
2023-08-17T18:54:13.723Z,99.90
2023-08-17T18:56:43.275Z,99.90
2023-08-17T18:59:13.285Z,99.90
2023-08-17T19:01:40.228Z,99.90
2023-08-17T19:04:07.204Z,99.90
2023-08-17T19:06:34.125Z,99.90
2023-08-17T19:09:01.220Z,99.90
2023-08-17T19:11:28.489Z,99.90
2023-08-17T19:13:55.411Z,99.90
2023-08-17T19:16:22.334Z,99.90
2023-08-17T19:18:49.302Z,99.90
2023-08-17T19:21:16.299Z,99.90
2023-08-17T19:23:45.077Z,99.90
2023-08-17T19:26:11.958Z,99.90
2023-08-17T19:28:38.811Z,99.90
2023-08-17T19:31:06.162Z,99.90
2023-08-17T19:33:33.201Z,99.90
2023-08-17T19:36:00.101Z,99.90
2023-08-17T19:38:27.026Z,99.90
2023-08-17T19:40:53.945Z,99.90
2023-08-17T19:43:20.890Z,99.90
2023-08-17T19:45:48.323Z,99.90
2023-08-17T19:48:15.255Z,99.90
2023-08-17T19:50:42.303Z,99.90
2023-08-17T19:53:09.263Z,99.90
2023-08-17T19:55:36.289Z,99.90
2023-08-17T19:58:03.384Z,99.90
2023-08-17T20:00:30.279Z,99.90
2023-08-17T20:02:57.292Z,99.90
2023-08-17T20:05:24.306Z,99.90
2023-08-17T20:07:51.319Z,99.90
2023-08-17T20:10:18.305Z,99.90
2023-08-17T20:12:45.234Z,99.90
2023-08-17T20:15:12.354Z,99.90
2023-08-17T20:17:40.814Z,99.90
2023-08-17T20:20:11.283Z,99.90
2023-08-17T20:22:38.265Z,99.90
2023-08-17T20:25:05.505Z,99.90
2023-08-17T20:27:32.619Z,99.90
2023-08-17T20:29:59.500Z,99.90
2023-08-17T20:32:26.453Z,99.90
2023-08-17T20:34:56.254Z,99.90
2023-08-17T20:37:23.280Z,99.90
2023-08-17T20:39:50.191Z,99.90
2023-08-17T20:42:17.265Z,99.90
2023-08-17T20:44:45.139Z,99.90
2023-08-17T20:47:12.178Z,99.90
2023-08-17T20:49:41.600Z,99.90
2023-08-17T20:52:11.191Z,99.90
2023-08-17T20:54:42.994Z,99.90
2023-08-17T20:57:09.866Z,99.90
2023-08-17T20:59:37.284Z,99.90
2023-08-17T21:02:04.520Z,99.90
2023-08-17T21:04:31.448Z,99.90
2023-08-17T21:06:59.508Z,99.90
2023-08-17T21:09:27.400Z,99.90
2023-08-17T21:11:54.866Z,99.90
2023-08-17T21:14:21.758Z,99.90
2023-08-17T21:16:48.738Z,99.90
2023-08-17T21:19:15.899Z,99.90
2023-08-17T21:21:42.797Z,99.90
2023-08-17T21:24:09.788Z,99.90
2023-08-17T21:26:36.733Z,99.90
2023-08-17T21:29:03.817Z,99.90
2023-08-17T21:31:31.516Z,99.90
2023-08-17T21:33:58.427Z,99.90
2023-08-17T21:36:26.178Z,99.90
2023-08-17T21:38:53.394Z,99.90
2023-08-17T21:41:21.793Z,99.90
2023-08-17T21:43:48.886Z,99.90
2023-08-17T21:46:15.803Z,99.90
2023-08-17T21:48:43.242Z,99.90
2023-08-17T21:51:10.235Z,99.90
2023-08-17T21:53:37.256Z,99.90
2023-08-17T21:56:04.415Z,99.90
2023-08-17T21:58:31.283Z,99.90
2023-08-17T22:00:58.612Z,99.90
2023-08-17T22:03:25.830Z,99.90
2023-08-17T22:05:53.546Z,99.90
2023-08-17T22:08:20.754Z,99.90
2023-08-17T22:10:48.527Z,99.90
2023-08-17T22:13:15.560Z,99.90
2023-08-17T22:15:42.493Z,99.90
2023-08-17T22:18:09.551Z,99.90
2023-08-17T22:20:40.202Z,99.90
2023-08-17T22:23:07.415Z,99.90
2023-08-17T22:25:34.668Z,99.90
2023-08-17T22:28:01.580Z,99.90
2023-08-17T22:30:28.677Z,99.90
2023-08-17T22:32:55.742Z,99.90
2023-08-17T22:35:23.127Z,99.90
2023-08-17T22:37:50.176Z,99.90
2023-08-17T22:40:17.087Z,99.90
2023-08-17T22:42:44.121Z,99.90
2023-08-17T22:45:11.415Z,99.90
2023-08-17T22:47:38.334Z,99.90
2023-08-17T22:50:05.973Z,99.90
2023-08-17T22:52:32.816Z,99.90
2023-08-17T22:55:01.185Z,99.90
2023-08-17T22:57:28.388Z,99.90
2023-08-17T22:59:55.665Z,99.90
2023-08-17T23:02:22.617Z,99.90
2023-08-17T23:04:49.512Z,99.90
2023-08-17T23:07:16.430Z,99.90
2023-08-17T23:09:43.456Z,99.90
2023-08-17T23:12:10.312Z,99.90
2023-08-17T23:14:37.338Z,99.90
2023-08-17T23:17:04.718Z,99.90
2023-08-17T23:19:31.888Z,99.90
2023-08-17T23:21:58.958Z,99.90
2023-08-17T23:24:25.772Z,99.90
2023-08-17T23:26:52.646Z,99.90
2023-08-17T23:29:19.546Z,99.90
2023-08-17T23:31:46.464Z,99.90
2023-08-17T23:34:13.419Z,99.90
2023-08-17T23:36:40.402Z,99.90
2023-08-17T23:39:07.478Z,99.90
2023-08-17T23:41:34.574Z,99.90
2023-08-17T23:44:02.203Z,99.90
2023-08-17T23:46:29.236Z,99.90
2023-08-17T23:48:56.396Z,99.90
2023-08-17T23:51:23.450Z,99.90
2023-08-17T23:53:50.368Z,99.90
2023-08-17T23:56:17.616Z,99.90
2023-08-17T23:58:44.587Z,99.90
